Nearby METAR Reports

 

KSJC - San Jose, California, USA
Distance from station: NE 9mi, 14km
Updated: Sun, 21-Apr-2019 5:53am PDT
Clear
Clear
 Wind from S
Wind: S 3 mph , 6 km/h
Temperature: 48°F , 9°C
Dew Point: 45°F , 7°C
Humidity: 87%
Barometer: 30.09 inHg , 1019 hPa
Clouds: Clear
Visibility: 10 miles , 16 km
2019/04/21 12:53 KSJC 211253Z 19003KT 10SM CLR 09/07 A3009 RMK AO2 SLP189 T00890067 $
KNUQ - Moffett Nas/Mtn, California, USA
Distance from station: N 9mi, 14km
Updated: Sun, 21-Apr-2019 5:56am PDT
Clear
Clear
 Wind from calm
Wind: Calm
Temperature: 46°F , 8°C
Dew Point: 43°F , 6°C
Humidity: 87%
Barometer: 30.10 inHg , 1019.3 hPa
Clouds: Clear
Visibility: 10 miles , 16 km
2019/04/21 12:56 KNUQ 211256Z 00000KT 10SM CLR 08/06 A3010 RMK AO2 SLP195 T00830061 $
 
KPAO - Palo Alto, California, USA
Distance from station: NNW 14mi, 23km
Updated: Sat, 20-Apr-2019 8:47pm PDT
NOT Current
Mostly cloudy
Mostly cloudy
 Wind from WNW
Wind: WNW 6 mph , 9 km/h
Temperature: 54°F , 12°C
Dew Point: 45°F , 7°C
Humidity: 72%
Barometer: 30.03 inHg , 1016.9 hPa
Clouds: Mostly cloudy
Visibility: 10 miles , 16 km
Cloud details: Mostly cloudy 2500 ft
2019/04/21 03:47 KPAO 210347Z 30005KT 10SM BKN025 12/07 A3003 RMK LAST
KRHV - San Jose/Reid, California, USA
Distance from station: ENE 12mi, 19km
Updated: Sat, 20-Apr-2019 9:55pm PDT
NOT Current
Mostly cloudy
Mostly cloudy
 Wind from W
Wind: W 8 mph , 13 km/h
Temperature: 54°F , 12°C
Dew Point: 43°F , 6°C
Humidity: 67%
Barometer: 30.05 inHg , 1017.6 hPa
Clouds: Mostly cloudy
Visibility: 7 miles , 11 km
Cloud details: Mostly cloudy 2800 ft
2019/04/21 04:55 KRHV 210455Z 28007KT 7SM BKN028 12/06 A3005 RMK LAST
 
KOAK - Oakland, California, USA
Distance from station: NNW 31mi, 50km
Updated: Sun, 21-Apr-2019 5:53am PDT
Partly cloudy
Partly cloudy
 Wind from SSW
Wind: SSW 7 mph , 11 km/h
Temperature: 54°F , 12°C
Dew Point: 46°F , 8°C
Humidity: 77%
Barometer: 30.09 inHg , 1019 hPa
Clouds: Partly cloudy
Visibility: 10 miles , 16 km
Cloud details: Partly cloudy 1200 ft
2019/04/21 12:53 KOAK 211253Z 21006KT 10SM SCT012 12/08 A3009 RMK AO2 SLP189 T01220083
KSQL - San Carlos Airpo, California, USA
Distance from station: NW 21mi, 34km
Updated: Sun, 21-Apr-2019 6:00am PDT
Clear
Clear
 Wind from calm
Wind: Calm
Temperature: 48°F , 9°C
Dew Point: 45°F , 7°C
Humidity: 87%
Barometer: 30.09 inHg , 1019 hPa
Clouds: Clear
Visibility: 9 miles , 14 km
2019/04/21 13:00 KSQL 211300Z AUTO 00000KT 9SM CLR 09/07 A3009 RMK AO2
 
KSFO - San Francisco, California, USA
Distance from station: NW 30mi, 49km
Updated: Sun, 21-Apr-2019 5:56am PDT
Few Clouds
Few Clouds
 Wind from W
Wind: W 6 mph , 9 km/h
Temperature: 46°F , 8°C
Wind Chill: 43°F , 6°C
Dew Point: 43°F , 6°C
Humidity: 87%
Barometer: 30.09 inHg , 1019 hPa
Clouds: Few Clouds
Visibility: 9 miles , 14 km
Cloud details: Few Clouds 1200 ft
2019/04/21 12:56 KSFO 211256Z 28005KT 9SM FEW012 08/06 A3009 RMK AO2 SLP188 VIS LWR W T00830061
KE16 - San Martin, California, USA
Distance from station: ESE 27mi, 43km
Updated: Sun, 21-Apr-2019 5:55am PDT
Overcast
Overcast
 Wind from calm
Wind: Calm
Temperature: 48°F , 9°C
Dew Point: 45°F , 7°C
Humidity: 87%
Barometer: 30.11 inHg , 1019.6 hPa
Clouds: Overcast
Visibility: 10 miles , 16 km
Cloud details: Overcast 2200 ft
2019/04/21 12:55 KE16 211255Z AUTO 00000KT 10SM OVC022 09/07 A3011 RMK AO2
 
KWVI - Watsonville, California, USA
Distance from station: SSE 27mi, 44km
Updated: Sun, 21-Apr-2019 5:53am PDT
Overcast
Overcast
 Wind from NNW
Wind: NNW 3 mph , 6 km/h
Temperature: 46°F , 8°C
Dew Point: 45°F , 7°C
Humidity: 93%
Barometer: 30.10 inHg , 1019.3 hPa
Clouds: Overcast
Visibility: 10 miles , 16 km
Cloud details: Overcast 2100 ft
2019/04/21 12:53 KWVI 211253Z AUTO 34003KT 10SM OVC021 08/07 A3010 RMK AO2 SLP192 T00830067
KHAF - Half Moon Bay, California, USA
Distance from station: WNW 31mi, 50km
Updated: Sun, 21-Apr-2019 6:00am PDT
Mist, Overcast
Mist, Overcast
 Wind from NE
Wind: NE 5 mph , 7 km/h
Temperature: 48°F , 9°C
Wind Chill: 46°F , 8°C
Dew Point: 46°F , 8°C
Humidity: 94%
Barometer: 30.11 inHg , 1019.6 hPa
Summary: Mist
Clouds: Overcast
Visibility: 6 miles , 10 km
Cloud details: Overcast 1000 ft
2019/04/21 13:00 KHAF 211300Z AUTO 05004KT 6SM BR OVC010 09/08 A3011 RMK AO2
 
KHWD - Hayward, California, USA
Distance from station: N 28mi, 44km
Updated: Sun, 21-Apr-2019 5:54am PDT
Clear
Clear
 Wind from ENE
Wind: ENE 6 mph , 9 km/h
Temperature: 48°F , 9°C
Wind Chill: 45°F , 7°C
Dew Point: 45°F , 7°C
Humidity: 87%
Barometer: 30.09 inHg , 1019 hPa
Clouds: Clear
Visibility: 9 miles , 14 km
2019/04/21 12:54 KHWD 211254Z 06005KT 9SM CLR 09/07 A3009 RMK AO2 SLP199 T00940072
KLVK - Livermore, California, USA
Distance from station: NNE 31mi, 51km
Updated: Sun, 21-Apr-2019 5:53am PDT
Mist, Clear
Mist, Clear
 Wind from calm
Wind: Calm
Temperature: 46°F , 8°C
Dew Point: 43°F , 6°C
Humidity: 87%
Barometer: 30.09 inHg , 1019 hPa
Summary: Mist
Clouds: Clear
Visibility: 6 miles , 10 km
2019/04/21 12:53 KLVK 211253Z AUTO 00000KT 6SM BR CLR 08/06 A3009 RMK AO2 SLP188 T00830061